createdAt,value
2019-03-31T00:00:24.619Z,1013.17
2019-03-31T00:01:24.614Z,1013.17
2019-03-31T00:02:24.584Z,1013.18
2019-03-31T00:03:24.552Z,1013.20
2019-03-31T00:04:24.530Z,1013.19
2019-03-31T00:05:24.567Z,1013.14
2019-03-31T00:06:25.178Z,1013.17
2019-03-31T00:07:24.552Z,1013.16
2019-03-31T00:08:24.518Z,1013.15
2019-03-31T00:09:24.517Z,1013.17
2019-03-31T00:10:24.479Z,1013.14
2019-03-31T00:11:24.614Z,1013.15
2019-03-31T00:12:24.548Z,1013.14
2019-03-31T00:13:24.517Z,1013.18
2019-03-31T00:14:24.469Z,1013.16
2019-03-31T00:15:24.416Z,1013.17
2019-03-31T00:16:24.428Z,1013.17
2019-03-31T00:17:24.459Z,1013.17
2019-03-31T00:18:24.391Z,1013.19
2019-03-31T00:19:24.458Z,1013.13
2019-03-31T00:20:24.456Z,1013.20
2019-03-31T00:21:24.401Z,1013.17
2019-03-31T00:22:24.425Z,1013.11
2019-03-31T00:23:24.378Z,1013.11
2019-03-31T00:24:24.343Z,1013.13
2019-03-31T00:25:24.349Z,1013.13
2019-03-31T00:26:24.322Z,1013.13
2019-03-31T00:27:24.334Z,1013.13
2019-03-31T00:28:24.369Z,1013.16
2019-03-31T00:29:24.303Z,1013.18
2019-03-31T00:30:24.285Z,1013.22
2019-03-31T00:31:24.292Z,1013.18
2019-03-31T00:32:24.291Z,1013.20
2019-03-31T00:33:24.253Z,1013.22
2019-03-31T00:34:24.220Z,1013.18
2019-03-31T00:35:24.253Z,1013.17
2019-03-31T00:36:24.226Z,1013.18
2019-03-31T00:37:24.212Z,1013.16
2019-03-31T00:38:24.222Z,1013.18
2019-03-31T00:39:24.167Z,1013.19
2019-03-31T00:40:24.227Z,1013.18
2019-03-31T00:41:24.175Z,1013.19
2019-03-31T00:42:24.179Z,1013.20
2019-03-31T00:43:24.172Z,1013.21
2019-03-31T00:44:24.165Z,1013.19
2019-03-31T00:45:24.179Z,1013.19
2019-03-31T00:46:24.159Z,1013.19
2019-03-31T00:47:24.105Z,1013.17
2019-03-31T00:48:24.109Z,1013.16
2019-03-31T00:49:24.090Z,1013.19
2019-03-31T00:50:24.097Z,1013.16
2019-03-31T00:51:24.048Z,1013.21
2019-03-31T00:52:24.038Z,1013.22
2019-03-31T00:53:24.077Z,1013.21
2019-03-31T00:54:24.064Z,1013.24
2019-03-31T00:55:24.025Z,1013.28
2019-03-31T00:56:24.004Z,1013.25
2019-03-31T00:57:24.020Z,1013.30
2019-03-31T00:58:23.987Z,1013.26
2019-03-31T00:59:23.983Z,1013.29
2019-03-31T01:00:23.992Z,1013.25
2019-03-31T01:01:35.900Z,1013.28
2019-03-31T01:02:24.992Z,1013.30
2019-03-31T01:03:23.951Z,1013.31
2019-03-31T01:04:23.908Z,1013.29
2019-03-31T01:05:23.940Z,1013.31
2019-03-31T01:06:23.924Z,1013.30
2019-03-31T01:07:23.888Z,1013.32
2019-03-31T01:08:23.952Z,1013.31
2019-03-31T01:09:23.860Z,1013.32
2019-03-31T01:10:23.853Z,1013.36
2019-03-31T01:11:23.855Z,1013.40
2019-03-31T01:12:23.869Z,1013.36
2019-03-31T01:13:23.861Z,1013.35
2019-03-31T01:14:23.788Z,1013.34
2019-03-31T01:15:23.800Z,1013.40
2019-03-31T01:16:23.806Z,1013.36
2019-03-31T01:17:23.767Z,1013.41
2019-03-31T01:18:23.750Z,1013.39
2019-03-31T01:19:23.751Z,1013.39
2019-03-31T01:20:23.749Z,1013.37
2019-03-31T01:21:23.723Z,1013.39
2019-03-31T01:22:23.711Z,1013.39
2019-03-31T01:23:23.696Z,1013.43
2019-03-31T01:24:23.727Z,1013.44
2019-03-31T01:25:23.686Z,1013.42
2019-03-31T01:26:23.727Z,1013.49
2019-03-31T01:27:23.657Z,1013.49
2019-03-31T01:28:23.641Z,1013.47
2019-03-31T01:29:23.647Z,1013.48
2019-03-31T01:30:23.622Z,1013.50
2019-03-31T01:31:23.604Z,1013.51
2019-03-31T01:32:23.621Z,1013.47
2019-03-31T01:33:23.573Z,1013.53
2019-03-31T01:34:23.614Z,1013.54
2019-03-31T01:35:23.578Z,1013.58
2019-03-31T01:36:23.553Z,1013.54
2019-03-31T01:37:23.595Z,1013.51
2019-03-31T01:38:23.531Z,1013.59
2019-03-31T01:39:23.538Z,1013.55
2019-03-31T01:40:23.515Z,1013.55
2019-03-31T01:41:23.511Z,1013.54
2019-03-31T01:42:23.481Z,1013.54
2019-03-31T01:43:23.497Z,1013.51
2019-03-31T01:44:23.522Z,1013.53
2019-03-31T01:45:23.456Z,1013.55
2019-03-31T01:46:23.446Z,1013.52
2019-03-31T01:47:23.459Z,1013.52
2019-03-31T01:48:23.449Z,1013.48
2019-03-31T01:49:23.440Z,1013.52
2019-03-31T01:50:23.400Z,1013.56
2019-03-31T01:51:23.394Z,1013.52
2019-03-31T01:52:23.403Z,1013.57
2019-03-31T01:53:23.378Z,1013.59
2019-03-31T01:54:23.361Z,1013.58
2019-03-31T01:55:23.348Z,1013.64
2019-03-31T01:56:23.350Z,1013.60
2019-03-31T01:57:23.378Z,1013.64
2019-03-31T01:58:23.347Z,1013.62
2019-03-31T01:59:23.351Z,1013.63
2019-03-31T02:00:23.296Z,1013.67
2019-03-31T02:01:23.298Z,1013.66
2019-03-31T02:02:23.372Z,1013.69
2019-03-31T02:03:23.335Z,1013.68
2019-03-31T02:04:23.289Z,1013.65
2019-03-31T02:05:23.257Z,1013.73
2019-03-31T02:06:23.260Z,1013.70
2019-03-31T02:07:23.258Z,1013.73
2019-03-31T02:08:23.210Z,1013.74
2019-03-31T02:09:23.251Z,1013.73
2019-03-31T02:10:23.415Z,1013.75
2019-03-31T02:11:23.222Z,1013.75
2019-03-31T02:12:23.262Z,1013.71
2019-03-31T02:13:23.232Z,1013.77
2019-03-31T02:14:23.205Z,1013.75
2019-03-31T02:15:23.181Z,1013.74
2019-03-31T02:16:23.229Z,1013.68
2019-03-31T02:17:23.183Z,1013.70
2019-03-31T02:18:23.117Z,1013.68
2019-03-31T02:19:23.123Z,1013.67
2019-03-31T02:20:23.175Z,1013.70
2019-03-31T02:21:23.153Z,1013.66
2019-03-31T02:22:23.101Z,1013.63
2019-03-31T02:23:23.073Z,1013.65
2019-03-31T02:24:23.081Z,1013.64
2019-03-31T02:25:23.032Z,1013.60
2019-03-31T02:26:23.026Z,1013.62
2019-03-31T02:27:23.055Z,1013.58
2019-03-31T02:28:23.050Z,1013.64
2019-03-31T02:29:23.026Z,1013.64
2019-03-31T02:30:23.047Z,1013.62
2019-03-31T02:31:23.025Z,1013.61
2019-03-31T02:32:24.712Z,1013.61
2019-03-31T02:33:22.992Z,1013.65
2019-03-31T02:34:22.962Z,1013.64
2019-03-31T02:35:22.992Z,1013.60
2019-03-31T02:36:22.984Z,1013.59
2019-03-31T02:37:22.897Z,1013.63
2019-03-31T02:38:22.939Z,1013.67
2019-03-31T02:39:23.038Z,1013.68
2019-03-31T02:40:22.914Z,1013.64
2019-03-31T02:41:22.904Z,1013.69
2019-03-31T02:42:22.911Z,1013.69
2019-03-31T02:43:22.864Z,1013.71
2019-03-31T02:44:23.015Z,1013.68
2019-03-31T02:45:22.827Z,1013.71
2019-03-31T02:46:22.840Z,1013.70
2019-03-31T02:47:22.843Z,1013.68
2019-03-31T02:48:22.841Z,1013.69
2019-03-31T02:49:22.786Z,1013.70
2019-03-31T02:50:22.785Z,1013.72
2019-03-31T02:51:22.771Z,1013.73
2019-03-31T02:52:22.780Z,1013.72
2019-03-31T02:53:22.784Z,1013.72
2019-03-31T02:54:22.739Z,1013.72
2019-03-31T02:55:22.786Z,1013.75
2019-03-31T02:56:22.724Z,1013.72
2019-03-31T02:57:22.686Z,1013.77
2019-03-31T02:58:22.722Z,1013.76
2019-03-31T02:59:22.673Z,1013.75
2019-03-31T03:00:22.689Z,1013.78
2019-03-31T03:01:22.695Z,1013.81
2019-03-31T03:02:40.212Z,1013.79
2019-03-31T03:03:23.682Z,1013.83
2019-03-31T03:04:22.691Z,1013.84
2019-03-31T03:05:22.602Z,1013.84
2019-03-31T03:06:22.625Z,1013.79
2019-03-31T03:07:22.620Z,1013.84
2019-03-31T03:08:22.678Z,1013.84
2019-03-31T03:09:22.583Z,1013.84
2019-03-31T03:10:22.608Z,1013.85
2019-03-31T03:11:22.544Z,1013.87
2019-03-31T03:12:22.605Z,1013.87
2019-03-31T03:13:22.596Z,1013.87
2019-03-31T03:14:22.517Z,1013.91
2019-03-31T03:15:22.530Z,1013.91
2019-03-31T03:16:22.576Z,1013.89
2019-03-31T03:17:22.474Z,1013.95
2019-03-31T03:18:22.510Z,1013.94
2019-03-31T03:19:22.602Z,1013.94
2019-03-31T03:20:22.457Z,1013.96
2019-03-31T03:21:24.592Z,1013.95
2019-03-31T03:22:22.413Z,1013.94
2019-03-31T03:23:22.422Z,1013.95
2019-03-31T03:24:22.450Z,1013.99
2019-03-31T03:25:22.479Z,1014.02
2019-03-31T03:26:22.402Z,1014.00
2019-03-31T03:27:22.454Z,1013.98
2019-03-31T03:28:22.509Z,1013.99
2019-03-31T03:29:22.420Z,1014.00
2019-03-31T03:30:22.450Z,1014.02
2019-03-31T03:31:22.434Z,1014.04
2019-03-31T03:32:22.604Z,1014.05
2019-03-31T03:33:22.380Z,1014.04
2019-03-31T03:34:22.437Z,1014.04
2019-03-31T03:35:22.354Z,1014.08
2019-03-31T03:36:22.301Z,1014.02
2019-03-31T03:37:22.319Z,1014.02
2019-03-31T03:38:22.286Z,1014.02
2019-03-31T03:39:22.282Z,1013.99
2019-03-31T03:40:22.313Z,1014.05
2019-03-31T03:41:22.255Z,1014.05
2019-03-31T03:42:22.307Z,1014.03
2019-03-31T03:43:22.259Z,1014.09
2019-03-31T03:44:22.259Z,1014.10
2019-03-31T03:45:22.374Z,1014.11
2019-03-31T03:46:22.256Z,1014.13
2019-03-31T03:47:22.184Z,1014.16
2019-03-31T03:48:22.265Z,1014.17
2019-03-31T03:49:22.150Z,1014.17
2019-03-31T03:50:22.206Z,1014.16
2019-03-31T03:51:22.275Z,1014.21
2019-03-31T03:52:22.136Z,1014.25
2019-03-31T03:53:22.122Z,1014.29
2019-03-31T03:54:22.142Z,1014.30
2019-03-31T03:55:22.106Z,1014.27
2019-03-31T03:56:22.240Z,1014.28
2019-03-31T03:57:22.065Z,1014.33
2019-03-31T03:58:22.213Z,1014.30
2019-03-31T03:59:22.083Z,1014.35
2019-03-31T04:00:22.067Z,1014.28
2019-03-31T04:01:22.074Z,1014.28
2019-03-31T04:02:22.022Z,1014.30
2019-03-31T04:03:30.268Z,1014.32
2019-03-31T04:04:23.041Z,1014.32
2019-03-31T04:05:22.031Z,1014.32
2019-03-31T04:06:21.981Z,1014.33
2019-03-31T04:07:22.015Z,1014.40
2019-03-31T04:08:21.977Z,1014.36
2019-03-31T04:09:21.986Z,1014.33
2019-03-31T04:10:21.964Z,1014.35
2019-03-31T04:11:22.102Z,1014.35
2019-03-31T04:12:21.944Z,1014.40
2019-03-31T04:13:21.963Z,1014.40
2019-03-31T04:14:21.944Z,1014.41
2019-03-31T04:15:21.909Z,1014.45
2019-03-31T04:16:21.875Z,1014.40
2019-03-31T04:17:21.875Z,1014.41
2019-03-31T04:18:21.953Z,1014.37
2019-03-31T04:19:21.852Z,1014.46
2019-03-31T04:20:22.097Z,1014.52
2019-03-31T04:21:21.836Z,1014.52
2019-03-31T04:22:21.812Z,1014.49
2019-03-31T04:23:21.817Z,1014.48
2019-03-31T04:24:21.837Z,1014.48
2019-03-31T04:25:21.821Z,1014.52
2019-03-31T04:26:21.828Z,1014.52
2019-03-31T04:27:21.752Z,1014.53
2019-03-31T04:28:21.756Z,1014.51
2019-03-31T04:29:21.743Z,1014.53
2019-03-31T04:30:21.730Z,1014.59
2019-03-31T04:31:21.759Z,1014.57
2019-03-31T04:32:21.706Z,1014.58
2019-03-31T04:33:21.693Z,1014.65
2019-03-31T04:34:21.750Z,1014.64
2019-03-31T04:35:21.715Z,1014.65
2019-03-31T04:36:21.650Z,1014.65
2019-03-31T04:37:21.634Z,1014.67
2019-03-31T04:38:21.641Z,1014.70
2019-03-31T04:39:21.800Z,1014.68
2019-03-31T04:40:21.594Z,1014.68
2019-03-31T04:41:21.640Z,1014.71
2019-03-31T04:42:21.722Z,1014.74
2019-03-31T04:43:21.558Z,1014.70
2019-03-31T04:44:21.592Z,1014.75
2019-03-31T04:45:21.580Z,1014.76
2019-03-31T04:46:21.573Z,1014.79
2019-03-31T04:47:21.548Z,1014.78
2019-03-31T04:48:21.503Z,1014.81
2019-03-31T04:49:21.535Z,1014.83
2019-03-31T04:50:21.546Z,1014.80
2019-03-31T04:51:21.573Z,1014.83
2019-03-31T04:52:21.513Z,1014.82
2019-03-31T04:53:21.500Z,1014.82
2019-03-31T04:54:21.467Z,1014.82
2019-03-31T04:55:21.478Z,1014.86
2019-03-31T04:56:21.458Z,1014.89
2019-03-31T04:57:21.477Z,1014.87
2019-03-31T04:58:21.421Z,1014.91
2019-03-31T05:00:38.501Z,1015.00
2019-03-31T05:01:38.574Z,1015.00
2019-03-31T05:02:38.506Z,1015.05
2019-03-31T05:03:38.476Z,1015.06
2019-03-31T05:04:38.483Z,1015.03
2019-03-31T05:05:38.473Z,1015.05
2019-03-31T05:06:38.447Z,1015.11
2019-03-31T05:07:38.472Z,1015.08
2019-03-31T05:08:38.514Z,1015.12
2019-03-31T05:09:38.419Z,1015.17
2019-03-31T05:10:38.409Z,1015.20
2019-03-31T05:11:38.403Z,1015.17
2019-03-31T05:12:38.423Z,1015.23
2019-03-31T05:13:38.408Z,1015.28
2019-03-31T05:14:38.355Z,1015.29
2019-03-31T05:15:38.358Z,1015.35
2019-03-31T05:16:38.347Z,1015.37
2019-03-31T05:17:38.342Z,1015.37
2019-03-31T05:18:38.428Z,1015.42
2019-03-31T05:19:38.313Z,1015.47
2019-03-31T05:20:38.309Z,1015.48
2019-03-31T05:21:38.299Z,1015.51
2019-03-31T05:22:38.317Z,1015.52
2019-03-31T05:23:38.312Z,1015.55
2019-03-31T05:24:38.255Z,1015.54
2019-03-31T05:25:38.258Z,1015.57
2019-03-31T05:26:38.259Z,1015.65
2019-03-31T05:27:38.234Z,1015.61
2019-03-31T05:28:38.250Z,1015.59
2019-03-31T05:29:38.241Z,1015.65
2019-03-31T05:30:38.213Z,1015.72
2019-03-31T05:31:38.218Z,1015.74
2019-03-31T05:32:38.276Z,1015.74
2019-03-31T05:33:38.214Z,1015.81
2019-03-31T05:34:38.160Z,1015.77
2019-03-31T05:35:38.263Z,1015.81
2019-03-31T05:36:38.202Z,1015.85
2019-03-31T05:37:50.300Z,1015.89
2019-03-31T05:38:39.135Z,1015.99
2019-03-31T05:39:38.109Z,1015.92
2019-03-31T05:40:38.094Z,1015.98
2019-03-31T05:41:38.094Z,1015.96
2019-03-31T05:42:38.113Z,1016.01
2019-03-31T05:43:38.058Z,1016.02
2019-03-31T05:44:38.065Z,1016.08
2019-03-31T05:45:38.076Z,1016.08
2019-03-31T05:46:38.035Z,1016.11
2019-03-31T05:47:38.051Z,1016.10
2019-03-31T05:48:38.084Z,1016.13
2019-03-31T05:49:37.986Z,1016.15
2019-03-31T05:50:38.134Z,1016.13
2019-03-31T05:51:38.073Z,1016.12
2019-03-31T05:52:37.977Z,1016.15
2019-03-31T05:53:37.967Z,1016.13
2019-03-31T05:54:37.988Z,1016.16
2019-03-31T05:55:37.936Z,1016.20
2019-03-31T05:56:38.001Z,1016.12
2019-03-31T05:57:37.984Z,1016.18
2019-03-31T05:58:37.950Z,1016.24
2019-03-31T05:59:38.947Z,1016.25
2019-03-31T06:00:37.922Z,1016.29
2019-03-31T06:01:37.879Z,1016.20
2019-03-31T06:02:37.865Z,1016.21
2019-03-31T06:03:37.922Z,1016.21
2019-03-31T06:04:38.018Z,1016.22
2019-03-31T06:05:37.859Z,1016.28
2019-03-31T06:06:37.825Z,1016.29
2019-03-31T06:07:37.967Z,1016.28
2019-03-31T06:08:37.879Z,1016.30
2019-03-31T06:09:37.840Z,1016.32
2019-03-31T06:10:37.783Z,1016.29
2019-03-31T06:11:37.922Z,1016.33
2019-03-31T06:12:37.759Z,1016.32
2019-03-31T06:13:37.933Z,1016.35
2019-03-31T06:14:37.753Z,1016.33
2019-03-31T06:15:37.741Z,1016.36
2019-03-31T06:16:37.771Z,1016.31
2019-03-31T06:17:38.377Z,1016.33
2019-03-31T06:18:37.962Z,1016.30
2019-03-31T06:19:38.246Z,1016.32
2019-03-31T06:20:37.762Z,1016.32
2019-03-31T06:21:37.806Z,1016.30
2019-03-31T06:22:37.669Z,1016.32
2019-03-31T06:23:37.661Z,1016.36
2019-03-31T06:24:37.649Z,1016.36
2019-03-31T06:25:37.608Z,1016.36
2019-03-31T06:26:37.665Z,1016.34
2019-03-31T06:27:37.621Z,1016.37
2019-03-31T06:28:37.722Z,1016.38
2019-03-31T06:29:37.575Z,1016.41
2019-03-31T06:30:38.308Z,1016.43
2019-03-31T06:31:38.249Z,1016.41
2019-03-31T06:32:37.589Z,1016.40
2019-03-31T06:33:37.568Z,1016.44
2019-03-31T06:34:47.332Z,1016.45
2019-03-31T06:35:38.580Z,1016.47
2019-03-31T06:36:37.512Z,1016.50
2019-03-31T06:37:37.974Z,1016.52
2019-03-31T06:38:37.530Z,1016.58
2019-03-31T06:39:38.260Z,1016.60
2019-03-31T06:40:37.639Z,1016.60
2019-03-31T06:41:37.532Z,1016.60
2019-03-31T06:42:37.436Z,1016.61
2019-03-31T06:43:37.470Z,1016.67
2019-03-31T06:44:38.239Z,1016.64
2019-03-31T06:45:37.517Z,1016.68
2019-03-31T06:46:37.427Z,1016.68
2019-03-31T06:47:37.554Z,1016.68
2019-03-31T06:48:38.254Z,1016.70
2019-03-31T06:49:37.512Z,1016.73
2019-03-31T06:50:37.558Z,1016.71
2019-03-31T06:51:37.374Z,1016.70
2019-03-31T06:52:37.391Z,1016.66
2019-03-31T06:53:37.364Z,1016.71
2019-03-31T06:54:37.336Z,1016.68
2019-03-31T06:55:37.863Z,1016.71
2019-03-31T06:56:37.327Z,1016.74
2019-03-31T06:57:37.318Z,1016.75
2019-03-31T06:58:37.432Z,1016.73
2019-03-31T06:59:37.365Z,1016.74
2019-03-31T07:00:37.239Z,1016.76
2019-03-31T07:01:37.903Z,1016.69
2019-03-31T07:02:37.753Z,1016.77
2019-03-31T07:03:37.339Z,1016.78
2019-03-31T07:04:37.258Z,1016.72
2019-03-31T07:05:37.753Z,1016.73
2019-03-31T07:06:37.183Z,1016.73
2019-03-31T07:07:37.213Z,1016.67
2019-03-31T07:08:37.213Z,1016.69
2019-03-31T07:09:37.209Z,1016.67
2019-03-31T07:10:37.158Z,1016.66
2019-03-31T07:11:37.151Z,1016.75
2019-03-31T07:12:37.230Z,1016.76
2019-03-31T07:13:37.144Z,1016.69
2019-03-31T07:14:37.164Z,1016.72
2019-03-31T07:15:37.124Z,1016.71
2019-03-31T07:16:37.091Z,1016.71
2019-03-31T07:17:37.087Z,1016.74
2019-03-31T07:18:37.086Z,1016.78
2019-03-31T07:19:37.097Z,1016.80
2019-03-31T07:20:37.098Z,1016.83
2019-03-31T07:21:37.065Z,1016.82
2019-03-31T07:22:37.022Z,1016.89
2019-03-31T07:23:37.001Z,1016.93
2019-03-31T07:24:37.075Z,1016.91
2019-03-31T07:25:37.393Z,1016.95
2019-03-31T07:26:37.004Z,1016.96
2019-03-31T07:27:37.009Z,1017.00
2019-03-31T07:28:37.007Z,1017.02
2019-03-31T07:29:36.953Z,1017.05
2019-03-31T07:30:36.936Z,1017.06
2019-03-31T07:31:36.921Z,1017.02
2019-03-31T07:32:36.941Z,1017.04
2019-03-31T07:33:36.894Z,1017.00
2019-03-31T07:34:36.904Z,1017.07
2019-03-31T07:35:38.947Z,1017.06
2019-03-31T07:36:36.900Z,1017.07
2019-03-31T07:37:47.052Z,1017.12
2019-03-31T07:38:39.230Z,1017.07
2019-03-31T07:39:37.201Z,1017.04
2019-03-31T07:40:37.047Z,1017.08
2019-03-31T07:41:36.845Z,1017.07
2019-03-31T07:42:36.802Z,1017.13
2019-03-31T07:43:36.849Z,1017.08
2019-03-31T07:44:37.341Z,1017.08
2019-03-31T07:45:36.765Z,1017.11
2019-03-31T07:46:36.839Z,1017.09
2019-03-31T07:47:36.781Z,1017.22
2019-03-31T07:48:36.798Z,1017.19
2019-03-31T07:49:36.751Z,1017.21
2019-03-31T07:50:36.751Z,1017.22
2019-03-31T07:51:37.615Z,1017.22
2019-03-31T07:52:36.733Z,1017.28
2019-03-31T07:54:55.574Z,1017.37
2019-03-31T07:56:04.444Z,1017.34
2019-03-31T07:56:55.042Z,1017.38
2019-03-31T07:57:55.108Z,1017.38
2019-03-31T07:58:55.719Z,1017.42
2019-03-31T08:00:18.500Z,1017.43
2019-03-31T08:00:55.153Z,1017.43
2019-03-31T08:01:55.436Z,1017.42
2019-03-31T08:02:55.079Z,1017.47
2019-03-31T08:04:06.497Z,1017.42
2019-03-31T08:04:55.865Z,1017.47
2019-03-31T08:05:55.021Z,1017.38
2019-03-31T08:06:54.952Z,1017.35
2019-03-31T08:07:54.938Z,1017.35
2019-03-31T08:08:54.966Z,1017.40
2019-03-31T08:10:04.615Z,1017.38
2019-03-31T08:10:54.958Z,1017.37
2019-03-31T08:11:54.947Z,1017.36
2019-03-31T08:12:54.894Z,1017.36
2019-03-31T08:13:55.341Z,1017.34
2019-03-31T08:14:54.978Z,1017.38
2019-03-31T08:15:54.909Z,1017.43
2019-03-31T08:16:54.900Z,1017.41
2019-03-31T08:17:54.901Z,1017.45
2019-03-31T08:18:54.876Z,1017.48
2019-03-31T08:19:54.806Z,1017.48
2019-03-31T08:20:54.860Z,1017.48
2019-03-31T08:21:54.801Z,1017.46
2019-03-31T08:22:57.152Z,1017.54
2019-03-31T08:23:54.774Z,1017.52
2019-03-31T08:24:54.795Z,1017.55
2019-03-31T08:25:54.759Z,1017.55
2019-03-31T08:26:54.758Z,1017.54
2019-03-31T08:27:54.730Z,1017.58
2019-03-31T08:28:54.732Z,1017.59
2019-03-31T08:30:00.410Z,1017.63
2019-03-31T08:30:55.747Z,1017.61
2019-03-31T08:31:54.713Z,1017.60
2019-03-31T08:32:54.713Z,1017.65
2019-03-31T08:33:54.677Z,1017.64
2019-03-31T08:34:54.685Z,1017.64
2019-03-31T08:35:54.668Z,1017.66
2019-03-31T08:36:54.673Z,1017.66
2019-03-31T08:37:54.710Z,1017.70
2019-03-31T08:38:54.629Z,1017.71
2019-03-31T08:39:54.611Z,1017.68
2019-03-31T08:40:54.628Z,1017.71
2019-03-31T08:41:54.599Z,1017.66
2019-03-31T08:42:54.610Z,1017.67
2019-03-31T08:43:54.583Z,1017.71
2019-03-31T08:44:55.478Z,1017.71
2019-03-31T08:45:54.539Z,1017.67
2019-03-31T08:46:54.566Z,1017.66
2019-03-31T08:47:54.546Z,1017.67
2019-03-31T08:48:54.538Z,1017.66
2019-03-31T08:49:54.526Z,1017.66
2019-03-31T08:50:54.490Z,1017.73
2019-03-31T08:51:54.493Z,1017.77
2019-03-31T08:52:54.572Z,1017.76
2019-03-31T08:53:54.484Z,1017.83
2019-03-31T08:54:54.475Z,1017.82
2019-03-31T08:55:54.496Z,1017.82
2019-03-31T08:56:55.464Z,1017.82
2019-03-31T08:57:54.470Z,1017.85
2019-03-31T08:58:54.413Z,1017.85
2019-03-31T08:59:54.532Z,1017.87
2019-03-31T09:00:54.436Z,1017.91
2019-03-31T09:01:54.371Z,1017.89
2019-03-31T09:02:54.441Z,1017.94
2019-03-31T09:03:54.406Z,1017.94
2019-03-31T09:04:54.365Z,1017.95
2019-03-31T09:06:01.842Z,1017.95
2019-03-31T09:06:57.076Z,1018.01
2019-03-31T09:07:55.627Z,1017.99
2019-03-31T09:08:54.307Z,1018.01
2019-03-31T09:09:54.401Z,1018.07
2019-03-31T09:10:54.984Z,1018.05
2019-03-31T09:11:54.690Z,1018.13
2019-03-31T09:12:54.261Z,1018.08
2019-03-31T09:13:54.281Z,1018.15
2019-03-31T09:14:54.492Z,1018.15
2019-03-31T09:15:54.225Z,1018.20
2019-03-31T09:16:54.227Z,1018.20
2019-03-31T09:17:54.601Z,1018.17
2019-03-31T09:18:54.205Z,1018.23
2019-03-31T09:19:54.207Z,1018.22
2019-03-31T09:20:54.176Z,1018.24
2019-03-31T09:21:54.154Z,1018.19
2019-03-31T09:22:55.115Z,1018.17
2019-03-31T09:23:54.184Z,1018.21
2019-03-31T09:24:55.078Z,1018.26
2019-03-31T09:25:54.188Z,1018.24
2019-03-31T09:26:54.117Z,1018.20
2019-03-31T09:27:54.192Z,1018.29
2019-03-31T09:28:54.109Z,1018.27
2019-03-31T09:29:54.122Z,1018.29
2019-03-31T09:30:54.138Z,1018.31
2019-03-31T09:31:54.612Z,1018.38
2019-03-31T09:32:54.134Z,1018.33
2019-03-31T09:33:54.033Z,1018.36
2019-03-31T09:34:54.048Z,1018.40
2019-03-31T09:36:15.031Z,1018.38
2019-03-31T09:36:55.478Z,1018.37
2019-03-31T09:37:54.065Z,1018.38
2019-03-31T09:38:54.650Z,1018.38
2019-03-31T09:39:55.986Z,1018.39
2019-03-31T09:40:54.101Z,1018.41
2019-03-31T09:41:54.632Z,1018.38
2019-03-31T09:42:56.026Z,1018.42
2019-03-31T09:43:54.006Z,1018.39
2019-03-31T09:44:53.950Z,1018.35
2019-03-31T09:45:56.039Z,1018.39
2019-03-31T09:46:54.029Z,1018.35
2019-03-31T09:47:53.910Z,1018.40
2019-03-31T09:48:54.014Z,1018.40
2019-03-31T09:49:54.278Z,1018.37
2019-03-31T09:50:56.420Z,1018.40
2019-03-31T09:51:53.996Z,1018.42
2019-03-31T09:52:54.299Z,1018.40
2019-03-31T09:53:54.523Z,1018.45
2019-03-31T09:54:54.001Z,1018.42
2019-03-31T09:55:53.986Z,1018.35
2019-03-31T09:56:53.924Z,1018.33
2019-03-31T09:57:54.545Z,1018.36
2019-03-31T09:58:53.926Z,1018.40
2019-03-31T09:59:54.515Z,1018.36
2019-03-31T10:00:53.899Z,1018.39
2019-03-31T10:01:53.852Z,1018.43
2019-03-31T10:02:53.850Z,1018.41
2019-03-31T10:03:53.743Z,1018.37
2019-03-31T10:04:55.054Z,1018.30
2019-03-31T10:05:53.713Z,1018.26
2019-03-31T10:06:53.677Z,1018.24
2019-03-31T10:07:53.703Z,1018.27
2019-03-31T10:08:53.678Z,1018.27
2019-03-31T10:09:53.702Z,1018.22
2019-03-31T10:10:53.652Z,1018.19
2019-03-31T10:11:53.707Z,1018.16
2019-03-31T10:12:53.872Z,1018.18
2019-03-31T10:13:53.953Z,1018.19
2019-03-31T10:14:54.383Z,1018.22
2019-03-31T10:15:53.772Z,1018.24
2019-03-31T10:16:53.640Z,1018.25
2019-03-31T10:17:53.622Z,1018.27
2019-03-31T10:18:53.561Z,1018.26
2019-03-31T10:19:53.569Z,1018.29
2019-03-31T10:20:53.600Z,1018.32
2019-03-31T10:21:53.535Z,1018.30
2019-03-31T10:22:53.552Z,1018.30
2019-03-31T10:23:53.521Z,1018.24
2019-03-31T10:24:53.525Z,1018.24
2019-03-31T10:25:53.490Z,1018.33
2019-03-31T10:26:53.486Z,1018.25
2019-03-31T10:27:53.487Z,1018.27
2019-03-31T10:28:53.541Z,1018.31
2019-03-31T10:29:53.548Z,1018.28
2019-03-31T10:30:53.440Z,1018.27
2019-03-31T10:31:54.407Z,1018.27
2019-03-31T10:32:54.712Z,1018.32
2019-03-31T10:33:53.427Z,1018.30
2019-03-31T10:34:53.391Z,1018.26
2019-03-31T10:35:53.458Z,1018.24
2019-03-31T10:36:53.366Z,1018.21
2019-03-31T10:37:54.243Z,1018.27
2019-03-31T10:38:53.395Z,1018.27
2019-03-31T10:39:53.345Z,1018.28
2019-03-31T10:40:53.319Z,1018.34
2019-03-31T10:41:53.317Z,1018.31
2019-03-31T10:42:55.114Z,1018.27
2019-03-31T10:43:54.528Z,1018.31
2019-03-31T10:44:54.656Z,1018.34
2019-03-31T10:45:53.423Z,1018.27
2019-03-31T10:46:54.522Z,1018.30
2019-03-31T10:47:54.702Z,1018.34
2019-03-31T10:48:53.287Z,1018.34
2019-03-31T10:49:53.233Z,1018.37
2019-03-31T10:50:53.242Z,1018.38
2019-03-31T10:51:53.247Z,1018.34
2019-03-31T10:52:53.269Z,1018.30
2019-03-31T10:53:53.198Z,1018.33
2019-03-31T10:54:53.181Z,1018.31
2019-03-31T10:55:53.264Z,1018.34
2019-03-31T10:56:53.159Z,1018.32
2019-03-31T10:57:54.599Z,1018.34
2019-03-31T10:58:53.130Z,1018.33
2019-03-31T10:59:53.142Z,1018.34
2019-03-31T11:00:53.158Z,1018.34
2019-03-31T11:01:53.137Z,1018.35
2019-03-31T11:02:53.189Z,1018.26
2019-03-31T11:03:53.089Z,1018.29
2019-03-31T11:04:53.084Z,1018.29
2019-03-31T11:05:53.097Z,1018.27
2019-03-31T11:06:59.624Z,1018.28
2019-03-31T11:07:54.233Z,1018.26
2019-03-31T11:08:53.047Z,1018.24
2019-03-31T11:09:53.033Z,1018.25
2019-03-31T11:10:53.082Z,1018.21
2019-03-31T11:11:53.088Z,1018.19
2019-03-31T11:12:53.037Z,1018.25
2019-03-31T11:13:53.055Z,1018.35
2019-03-31T11:14:55.855Z,1018.36
2019-03-31T11:15:53.023Z,1018.33
2019-03-31T11:16:52.953Z,1018.29
2019-03-31T11:17:52.950Z,1018.33
2019-03-31T11:18:53.518Z,1018.32
2019-03-31T11:19:52.975Z,1018.31
2019-03-31T11:20:52.943Z,1018.31
2019-03-31T11:21:52.936Z,1018.30
2019-03-31T11:22:52.937Z,1018.37
2019-03-31T11:23:53.535Z,1018.35
2019-03-31T11:24:52.891Z,1018.35
2019-03-31T11:25:52.893Z,1018.39
2019-03-31T11:26:52.843Z,1018.41
2019-03-31T11:27:55.077Z,1018.33
2019-03-31T11:28:52.896Z,1018.30
2019-03-31T11:29:54.297Z,1018.28
2019-03-31T11:30:52.810Z,1018.38
2019-03-31T11:31:52.903Z,1018.31
2019-03-31T11:32:54.576Z,1018.26
2019-03-31T11:33:52.786Z,1018.31
2019-03-31T11:34:52.782Z,1018.35
2019-03-31T11:35:52.782Z,1018.34
2019-03-31T11:36:57.072Z,1018.36
2019-03-31T11:37:52.743Z,1018.32
2019-03-31T11:38:52.805Z,1018.33
2019-03-31T11:39:53.650Z,1018.32
2019-03-31T11:40:52.760Z,1018.30
2019-03-31T11:41:53.275Z,1018.33
2019-03-31T11:42:52.687Z,1018.34
2019-03-31T11:43:52.712Z,1018.34
2019-03-31T11:44:52.669Z,1018.34
2019-03-31T11:45:52.698Z,1018.37
2019-03-31T11:46:52.657Z,1018.37
2019-03-31T11:47:52.646Z,1018.30
2019-03-31T11:48:52.740Z,1018.36
2019-03-31T11:49:52.583Z,1018.34
2019-03-31T11:50:53.813Z,1018.35
2019-03-31T11:51:52.673Z,1018.40
2019-03-31T11:52:52.573Z,1018.39
2019-03-31T11:53:52.586Z,1018.41
2019-03-31T11:54:52.579Z,1018.36
2019-03-31T11:55:52.686Z,1018.40
2019-03-31T11:56:52.561Z,1018.43
2019-03-31T11:57:52.519Z,1018.43
2019-03-31T11:58:52.509Z,1018.38
2019-03-31T11:59:52.563Z,1018.35
2019-03-31T12:00:52.501Z,1018.32
2019-03-31T12:01:52.712Z,1018.29
2019-03-31T12:02:52.512Z,1018.41
2019-03-31T12:03:52.650Z,1018.31
2019-03-31T12:04:52.439Z,1018.26
2019-03-31T12:05:52.456Z,1018.24
2019-03-31T12:06:53.045Z,1018.34
2019-03-31T12:07:52.520Z,1018.38